createdAt,value
2023-03-01T00:02:45.742Z,25.52
2023-03-01T00:05:49.954Z,25.43
2023-03-01T00:08:53.820Z,25.99
2023-03-01T00:11:57.746Z,25.16
2023-03-01T00:15:01.871Z,25.19
2023-03-01T00:18:06.672Z,25.51
2023-03-01T00:21:10.769Z,26.03
2023-03-01T00:24:14.795Z,26.56
2023-03-01T00:27:18.605Z,25.66
2023-03-01T00:30:22.761Z,26.62
2023-03-01T00:33:26.760Z,26.14
2023-03-01T00:36:31.245Z,26.10
2023-03-01T00:39:35.398Z,26.58
2023-03-01T00:42:39.257Z,26.61
2023-03-01T00:45:43.485Z,26.42
2023-03-01T00:48:49.738Z,26.66
2023-03-01T00:51:53.666Z,27.32
2023-03-01T00:54:57.376Z,27.61
2023-03-01T00:58:01.385Z,27.59
2023-03-01T01:01:05.556Z,27.71
2023-03-01T01:04:11.035Z,27.46
2023-03-01T01:07:15.993Z,27.60
2023-03-01T01:10:19.898Z,27.06
2023-03-01T01:13:24.000Z,28.37
2023-03-01T01:16:28.248Z,28.13
2023-03-01T01:19:32.217Z,28.46
2023-03-01T01:22:37.285Z,29.09
2023-03-01T01:25:41.236Z,28.48
2023-03-01T01:28:45.270Z,28.69
2023-03-01T01:31:49.557Z,28.41
2023-03-01T01:34:53.692Z,28.67
2023-03-01T01:37:57.721Z,28.57
2023-03-01T01:41:01.627Z,29.03
2023-03-01T01:44:05.801Z,28.99
2023-03-01T01:47:13.825Z,28.52
2023-03-01T01:50:19.243Z,27.89
2023-03-01T01:53:23.311Z,28.52
2023-03-01T01:56:27.063Z,28.03
2023-03-01T01:59:31.031Z,29.17
2023-03-01T02:02:35.302Z,28.52
2023-03-01T02:05:39.741Z,28.69
2023-03-01T02:08:43.855Z,28.56
2023-03-01T02:11:47.545Z,27.99
2023-03-01T02:14:51.605Z,28.81
2023-03-01T02:17:55.653Z,29.31
2023-03-01T02:20:59.802Z,29.48
2023-03-01T02:24:03.664Z,29.27
2023-03-01T02:27:07.712Z,28.32
2023-03-01T02:30:13.776Z,28.21
2023-03-01T02:33:17.919Z,28.78
2023-03-01T02:36:21.986Z,29.21
2023-03-01T02:39:26.375Z,28.81
2023-03-01T02:42:30.154Z,28.82
2023-03-01T02:45:34.185Z,28.58
2023-03-01T02:48:38.556Z,28.94
2023-03-01T02:51:42.304Z,28.68
2023-03-01T02:54:46.252Z,29.26
2023-03-01T02:57:50.362Z,29.87
2023-03-01T03:00:54.642Z,29.46
2023-03-01T03:03:58.747Z,29.44
2023-03-01T03:07:04.692Z,29.22
2023-03-01T03:10:08.669Z,29.85
2023-03-01T03:13:13.088Z,29.04
2023-03-01T03:16:24.398Z,29.03
2023-03-01T03:19:30.540Z,29.10
2023-03-01T03:22:34.484Z,28.19
2023-03-01T03:25:38.425Z,29.01
2023-03-01T03:28:42.679Z,28.86
2023-03-01T03:31:46.976Z,28.91
2023-03-01T03:34:50.942Z,28.36
2023-03-01T03:37:54.837Z,29.00
2023-03-01T03:40:58.926Z,28.55
2023-03-01T03:44:03.031Z,29.24
2023-03-01T03:47:07.091Z,29.12
2023-03-01T03:50:11.056Z,29.12
2023-03-01T03:53:15.242Z,28.65
2023-03-01T03:56:19.507Z,29.25
2023-03-01T03:59:23.454Z,29.50
2023-03-01T04:02:27.662Z,29.60
2023-03-01T04:05:31.539Z,29.51
2023-03-01T04:08:35.830Z,28.92
2023-03-01T04:11:39.901Z,29.85
2023-03-01T04:14:44.341Z,29.64
2023-03-01T04:17:48.280Z,29.70
2023-03-01T04:20:52.568Z,29.38
2023-03-01T04:23:58.729Z,28.43
2023-03-01T04:27:02.819Z,29.19
2023-03-01T04:30:06.671Z,28.87
2023-03-01T04:33:10.992Z,29.19
2023-03-01T04:36:15.107Z,29.74
2023-03-01T04:39:19.208Z,29.17
2023-03-01T04:42:23.359Z,29.18
2023-03-01T04:45:27.450Z,29.12
2023-03-01T04:48:31.350Z,29.88
2023-03-01T04:51:35.703Z,30.13
2023-03-01T04:54:39.692Z,29.38
2023-03-01T04:57:43.791Z,29.51
2023-03-01T05:00:47.850Z,29.43
2023-03-01T05:03:51.747Z,30.04
2023-03-01T05:06:55.892Z,29.83
2023-03-01T05:10:00.141Z,29.03
2023-03-01T05:13:05.124Z,29.60
2023-03-01T05:16:09.128Z,29.62
2023-03-01T05:19:13.102Z,29.61
2023-03-01T05:22:17.443Z,29.53
2023-03-01T05:25:21.595Z,29.57
2023-03-01T05:28:25.705Z,28.29
2023-03-01T05:31:29.822Z,29.62
2023-03-01T05:34:33.915Z,29.03
2023-03-01T05:37:38.151Z,30.65
2023-03-01T05:40:41.846Z,29.56
2023-03-01T05:43:46.076Z,29.74
2023-03-01T05:46:49.807Z,29.94
2023-03-01T05:49:54.293Z,29.85
2023-03-01T05:52:58.354Z,30.15
2023-03-01T05:56:02.816Z,29.79
2023-03-01T05:59:06.934Z,29.64
2023-03-01T06:02:10.784Z,30.00
2023-03-01T06:05:14.906Z,29.56
2023-03-01T06:08:18.721Z,29.85
2023-03-01T06:11:22.464Z,30.05
2023-03-01T06:14:26.360Z,29.47
2023-03-01T06:17:30.613Z,29.38
2023-03-01T06:20:34.591Z,30.03
2023-03-01T06:23:38.441Z,30.33
2023-03-01T06:26:42.460Z,30.57
2023-03-01T06:29:46.646Z,29.72
2023-03-01T06:32:51.044Z,29.65
2023-03-01T06:35:55.268Z,29.45
2023-03-01T06:38:59.353Z,29.70
2023-03-01T06:42:03.205Z,30.03
2023-03-01T06:45:07.255Z,29.12
2023-03-01T06:48:11.132Z,29.78
2023-03-01T06:51:15.211Z,29.78
2023-03-01T06:54:26.167Z,29.85
2023-03-01T06:57:36.521Z,30.19
2023-03-01T07:00:41.071Z,29.06
2023-03-01T07:03:45.107Z,29.57
2023-03-01T07:10:17.118Z,29.75
2023-03-01T07:20:12.311Z,29.00
2023-03-01T07:23:16.225Z,30.05
2023-03-01T07:26:21.548Z,29.76
2023-03-01T07:29:35.341Z,29.23
2023-03-01T07:32:45.407Z,29.83
2023-03-01T07:35:49.570Z,29.39
2023-03-01T07:49:18.243Z,29.96
2023-03-01T07:52:22.248Z,29.21
2023-03-01T07:55:27.320Z,28.99
2023-03-01T07:58:31.381Z,28.70
2023-03-01T08:01:35.318Z,29.19
2023-03-01T08:04:38.886Z,28.80
2023-03-01T08:07:42.903Z,29.08
2023-03-01T08:10:47.076Z,29.26
2023-03-01T08:13:52.146Z,28.57
2023-03-01T08:16:58.207Z,28.95
2023-03-01T08:20:03.226Z,28.30
2023-03-01T08:23:08.310Z,28.73
2023-03-01T08:26:15.799Z,28.23
2023-03-01T08:29:19.913Z,28.05
2023-03-01T08:32:24.174Z,28.12
2023-03-01T08:35:28.734Z,29.08
2023-03-01T08:38:32.460Z,28.05
2023-03-01T08:41:36.481Z,27.96
2023-03-01T08:48:11.696Z,27.82
2023-03-01T08:51:16.367Z,27.94
2023-03-01T08:54:21.297Z,27.48
2023-03-01T08:57:25.418Z,27.80
2023-03-01T09:00:29.661Z,28.22
2023-03-01T09:03:33.638Z,28.12
2023-03-01T09:06:42.883Z,27.49
2023-03-01T09:09:48.193Z,26.97
2023-03-01T09:12:56.436Z,26.67
2023-03-01T09:16:00.788Z,26.70
2023-03-01T09:19:06.118Z,26.72
2023-03-01T09:22:14.058Z,27.51
2023-03-01T09:25:18.129Z,27.00
2023-03-01T09:28:29.640Z,26.48
2023-03-01T09:31:34.657Z,26.12
2023-03-01T09:34:46.000Z,26.81
2023-03-01T09:37:49.746Z,27.19
2023-03-01T09:40:53.636Z,26.56
2023-03-01T09:43:57.654Z,27.09
2023-03-01T09:47:01.465Z,27.18
2023-03-01T09:50:05.366Z,26.51
2023-03-01T09:53:09.422Z,27.41
2023-03-01T09:56:15.159Z,26.86
2023-03-01T09:59:23.140Z,26.18
2023-03-01T10:02:29.928Z,25.96
2023-03-01T10:05:34.390Z,25.90
2023-03-01T10:08:38.313Z,26.85
2023-03-01T10:19:01.052Z,25.65
2023-03-01T10:22:05.128Z,25.45
2023-03-01T10:25:09.224Z,25.48
2023-03-01T10:28:13.610Z,26.00
2023-03-01T10:31:17.790Z,25.83
2023-03-01T10:34:21.863Z,24.89
2023-03-01T10:37:25.752Z,25.53
2023-03-01T10:40:29.785Z,26.13
2023-03-01T10:43:33.702Z,26.12
2023-03-01T10:46:37.536Z,26.45
2023-03-01T10:49:41.553Z,26.56
2023-03-01T10:52:57.287Z,27.10
2023-03-01T10:56:01.628Z,26.36
2023-03-01T10:59:05.425Z,27.08
2023-03-01T11:02:24.016Z,26.08
2023-03-01T11:05:30.638Z,26.26
2023-03-01T11:08:37.896Z,25.65
2023-03-01T11:11:47.252Z,24.63
2023-03-01T11:14:56.586Z,25.79
2023-03-01T11:18:13.413Z,25.63
2023-03-01T11:21:23.062Z,25.35
2023-03-01T11:27:48.977Z,25.63
2023-03-01T11:31:06.810Z,24.57
2023-03-01T11:34:13.927Z,23.06
2023-03-01T11:37:18.041Z,24.27
2023-03-01T11:40:22.123Z,24.70
2023-03-01T11:43:26.491Z,25.02
2023-03-01T11:46:30.275Z,24.27
2023-03-01T11:49:37.274Z,24.48
2023-03-01T11:52:41.060Z,24.34
2023-03-01T11:55:45.379Z,24.61
2023-03-01T11:58:49.400Z,24.02
2023-03-01T12:01:53.327Z,24.29
2023-03-01T12:04:57.344Z,24.62
2023-03-01T12:08:05.818Z,24.24
2023-03-01T12:11:09.920Z,24.41
2023-03-01T12:14:13.938Z,24.32
2023-03-01T12:17:18.297Z,24.45
2023-03-01T12:20:22.512Z,24.61
2023-03-01T12:23:30.804Z,25.14
2023-03-01T12:26:34.925Z,24.76
2023-03-01T12:29:39.192Z,24.31
2023-03-01T12:32:42.962Z,24.20
2023-03-01T12:35:46.622Z,24.68
2023-03-01T12:38:50.329Z,24.20
2023-03-01T12:41:54.414Z,24.72
2023-03-01T12:44:58.548Z,24.99
2023-03-01T12:48:02.852Z,24.35
2023-03-01T12:51:06.713Z,24.08
2023-03-01T12:54:15.070Z,25.29
2023-03-01T12:57:19.321Z,24.81
2023-03-01T13:00:23.225Z,24.92
2023-03-01T13:03:27.122Z,24.28
2023-03-01T13:06:41.365Z,24.74
2023-03-01T13:09:48.145Z,24.87
2023-03-01T13:12:52.241Z,24.58
2023-03-01T13:15:56.348Z,24.31
2023-03-01T13:19:00.583Z,24.30
2023-03-01T13:22:04.194Z,25.06
2023-03-01T13:25:08.340Z,24.45
2023-03-01T13:28:13.825Z,24.39
2023-03-01T13:31:20.162Z,24.67
2023-03-01T13:37:55.725Z,23.64
2023-03-01T13:41:00.073Z,23.91
2023-03-01T13:44:04.564Z,24.44
2023-03-01T13:47:16.357Z,23.28
2023-03-01T13:50:20.577Z,24.30
2023-03-01T13:53:24.765Z,24.40
2023-03-01T13:56:34.992Z,24.80
2023-03-01T14:06:41.704Z,25.12
2023-03-01T14:09:48.769Z,25.33
2023-03-01T14:19:36.240Z,24.94
2023-03-01T14:22:50.507Z,24.52
2023-03-01T14:25:55.970Z,24.64
2023-03-01T14:29:22.454Z,25.03
2023-03-01T14:39:36.444Z,24.33
2023-03-01T14:42:58.929Z,24.63
2023-03-01T15:04:12.183Z,23.55
2023-03-01T15:10:32.789Z,24.03
2023-03-01T15:13:53.304Z,24.41
2023-03-01T15:27:24.310Z,24.36
2023-03-01T15:41:00.223Z,24.42
2023-03-01T15:44:14.722Z,24.75
2023-03-01T15:47:21.438Z,24.44
2023-03-01T15:50:25.507Z,24.18
2023-03-01T15:53:55.940Z,24.38
2023-03-01T15:57:05.273Z,24.32
2023-03-01T16:00:10.832Z,24.41
2023-03-01T16:04:07.362Z,24.23
2023-03-01T16:06:53.065Z,25.89
2023-03-01T16:09:57.048Z,24.62
2023-03-01T16:13:07.119Z,24.55
2023-03-01T16:16:11.630Z,25.22
2023-03-01T16:19:18.070Z,25.41
2023-03-01T16:25:28.445Z,26.33
2023-03-01T16:28:32.362Z,25.89
2023-03-01T16:31:40.596Z,26.40
2023-03-01T16:48:11.914Z,25.88
2023-03-01T16:51:16.099Z,26.12
2023-03-01T16:54:20.004Z,25.69
2023-03-01T17:20:40.320Z,27.24
2023-03-01T17:27:12.592Z,27.61
2023-03-01T17:36:49.700Z,27.92
2023-03-01T17:39:55.427Z,28.39
2023-03-01T17:43:05.677Z,27.48
2023-03-01T17:46:20.322Z,28.36
2023-03-01T18:02:13.898Z,27.99
2023-03-01T18:05:23.927Z,28.58
2023-03-01T18:18:00.439Z,28.99
2023-03-01T18:22:40.537Z,28.39
2023-03-01T18:27:56.425Z,28.91
2023-03-01T18:31:00.536Z,28.73
2023-03-01T18:41:14.442Z,29.51
2023-03-01T18:53:40.333Z,30.43
2023-03-01T18:56:44.057Z,30.31
2023-03-01T18:59:48.125Z,31.68
2023-03-01T19:02:52.284Z,31.21
2023-03-01T19:05:56.518Z,31.59
2023-03-01T19:09:00.364Z,30.69
2023-03-01T19:12:04.248Z,31.53
2023-03-01T19:15:08.394Z,31.40
2023-03-01T19:18:12.433Z,30.70
2023-03-01T19:21:16.329Z,30.60
2023-03-01T19:24:20.203Z,31.31
2023-03-01T19:27:24.005Z,32.18
2023-03-01T19:30:28.092Z,31.50
2023-03-01T19:33:32.175Z,32.15
2023-03-01T19:36:36.265Z,31.50
2023-03-01T19:39:43.077Z,31.71
2023-03-01T19:42:46.877Z,31.24
2023-03-01T19:45:50.986Z,31.50
2023-03-01T19:48:55.129Z,31.73
2023-03-01T19:51:59.486Z,31.89
2023-03-01T19:55:09.496Z,31.63
2023-03-01T19:58:13.804Z,31.99
2023-03-01T20:01:17.924Z,30.75
2023-03-01T20:04:21.801Z,31.29
2023-03-01T20:07:25.731Z,31.63
2023-03-01T20:10:33.106Z,30.21
2023-03-01T20:13:37.435Z,30.25
2023-03-01T20:16:41.513Z,30.55
2023-03-01T20:19:45.140Z,31.44
2023-03-01T20:22:49.285Z,31.03
2023-03-01T20:25:53.372Z,30.91
2023-03-01T20:28:57.364Z,29.89
2023-03-01T20:32:01.324Z,31.31
2023-03-01T20:35:05.621Z,31.93
2023-03-01T20:38:09.467Z,31.46
2023-03-01T20:41:13.507Z,31.47
2023-03-01T20:44:17.483Z,31.96
2023-03-01T20:47:21.407Z,31.95
2023-03-01T20:50:25.511Z,31.69
2023-03-01T20:53:29.407Z,31.89
2023-03-01T20:56:34.508Z,31.43
2023-03-01T20:59:38.662Z,32.15
2023-03-01T21:02:42.513Z,32.66
2023-03-01T21:05:46.798Z,31.46
2023-03-01T21:08:50.713Z,31.42
2023-03-01T21:11:54.752Z,32.32
2023-03-01T21:14:58.578Z,31.56
2023-03-01T21:18:02.146Z,31.75
2023-03-01T21:21:06.358Z,32.40
2023-03-01T21:24:10.605Z,32.04
2023-03-01T21:27:14.569Z,32.64
2023-03-01T21:30:18.485Z,32.86
2023-03-01T21:33:22.320Z,33.21
2023-03-01T21:36:26.307Z,32.98
2023-03-01T21:39:30.247Z,31.74
2023-03-01T21:42:34.132Z,33.49
2023-03-01T21:45:38.205Z,33.35
2023-03-01T21:48:44.202Z,34.01
2023-03-01T21:51:49.067Z,33.55
2023-03-01T21:54:53.039Z,33.45
2023-03-01T21:57:57.183Z,33.24
2023-03-01T22:01:00.929Z,33.33
2023-03-01T22:04:05.043Z,34.07
2023-03-01T22:07:09.338Z,33.47
2023-03-01T22:10:13.309Z,33.16
2023-03-01T22:13:17.240Z,33.08
2023-03-01T22:16:20.934Z,33.48
2023-03-01T22:19:27.834Z,33.76
2023-03-01T22:22:31.996Z,33.86
2023-03-01T22:25:36.064Z,33.03
2023-03-01T22:28:40.026Z,33.19
2023-03-01T22:31:43.781Z,33.63
2023-03-01T22:34:47.793Z,32.48
2023-03-01T22:37:52.136Z,33.56
2023-03-01T22:40:55.817Z,33.02
2023-03-01T22:43:59.848Z,32.88
2023-03-01T22:47:06.873Z,33.14
2023-03-01T22:50:10.896Z,33.62
2023-03-01T22:53:15.175Z,33.05
2023-03-01T22:56:19.342Z,33.24
2023-03-01T22:59:23.580Z,33.25
2023-03-01T23:02:27.313Z,32.74
2023-03-01T23:05:31.340Z,33.12
2023-03-01T23:08:35.086Z,32.37
2023-03-01T23:11:39.326Z,33.38
2023-03-01T23:14:42.943Z,33.20
2023-03-01T23:17:46.905Z,33.08
2023-03-01T23:20:51.382Z,33.04
2023-03-01T23:23:55.251Z,32.95
2023-03-01T23:26:59.051Z,32.72
2023-03-01T23:30:05.096Z,32.93
2023-03-01T23:33:08.953Z,32.82
2023-03-01T23:36:14.580Z,32.55
2023-03-01T23:39:18.949Z,32.91
2023-03-01T23:42:22.752Z,32.42
2023-03-01T23:45:26.865Z,32.20
2023-03-01T23:48:30.595Z,31.98
2023-03-01T23:51:34.838Z,32.28
2023-03-01T23:54:38.547Z,31.56
2023-03-01T23:57:42.401Z,31.70
